sensor_id;sensor_type;location;lat;lon;timestamp;pressure;altitude;pressure_sealevel;temperature;humidity
18900;BME280;9582;52.018;6.306;2022-12-18T00:02:07;102796.66;;;-5.11;100.00
18900;BME280;9582;52.018;6.306;2022-12-18T00:04:33;102787.25;;;-5.12;100.00
18900;BME280;9582;52.018;6.306;2022-12-18T00:07:00;102781.75;;;-5.19;100.00
18900;BME280;9582;52.018;6.306;2022-12-18T00:09:27;102784.22;;;-5.21;100.00
18900;BME280;9582;52.018;6.306;2022-12-18T00:11:55;102782.78;;;-5.16;100.00
18900;BME280;9582;52.018;6.306;2022-12-18T00:14:22;102786.28;;;-5.14;100.00
18900;BME280;9582;52.018;6.306;2022-12-18T00:16:48;102785.56;;;-5.11;100.00
18900;BME280;9582;52.018;6.306;2022-12-18T00:19:15;102784.69;;;-5.12;100.00
18900;BME280;9582;52.018;6.306;2022-12-18T00:21:42;102786.28;;;-5.14;100.00
18900;BME280;9582;52.018;6.306;2022-12-18T00:24:09;102785.81;;;-5.23;100.00
18900;BME280;9582;52.018;6.306;2022-12-18T00:26:37;102788.09;;;-5.45;100.00
18900;BME280;9582;52.018;6.306;2022-12-18T00:29:07;102786.03;;;-5.68;100.00
18900;BME280;9582;52.018;6.306;2022-12-18T00:31:35;102784.75;;;-5.76;100.00
18900;BME280;9582;52.018;6.306;2022-12-18T00:34:02;102777.72;;;-5.80;100.00
18900;BME280;9582;52.018;6.306;2022-12-18T00:36:30;102771.38;;;-5.89;100.00
18900;BME280;9582;52.018;6.306;2022-12-18T00:38:58;102774.97;;;-5.85;100.00
18900;BME280;9582;52.018;6.306;2022-12-18T00:41:25;102774.38;;;-5.79;100.00
18900;BME280;9582;52.018;6.306;2022-12-18T00:44:13;102774.31;;;-5.65;100.00
18900;BME280;9582;52.018;6.306;2022-12-18T00:46:40;102773.03;;;-5.57;100.00
18900;BME280;9582;52.018;6.306;2022-12-18T00:49:08;102767.22;;;-5.54;100.00
18900;BME280;9582;52.018;6.306;2022-12-18T00:51:34;102769.03;;;-5.52;100.00
18900;BME280;9582;52.018;6.306;2022-12-18T00:54:01;102773.69;;;-5.45;100.00
18900;BME280;9582;52.018;6.306;2022-12-18T00:56:27;102776.13;;;-5.46;100.00
18900;BME280;9582;52.018;6.306;2022-12-18T00:58:54;102778.84;;;-5.43;100.00
18900;BME280;9582;52.018;6.306;2022-12-18T01:01:22;102778.13;;;-5.57;100.00
18900;BME280;9582;52.018;6.306;2022-12-18T01:03:48;102769.28;;;-5.63;100.00
18900;BME280;9582;52.018;6.306;2022-12-18T01:06:16;102781.25;;;-5.62;100.00
18900;BME280;9582;52.018;6.306;2022-12-18T01:08:42;102777.88;;;-5.61;100.00
18900;BME280;9582;52.018;6.306;2022-12-18T01:11:13;102779.31;;;-5.66;100.00
18900;BME280;9582;52.018;6.306;2022-12-18T01:13:41;102764.59;;;-5.72;100.00
18900;BME280;9582;52.018;6.306;2022-12-18T01:16:08;102764.78;;;-5.85;100.00
18900;BME280;9582;52.018;6.306;2022-12-18T01:18:36;102766.47;;;-5.84;100.00
18900;BME280;9582;52.018;6.306;2022-12-18T01:21:06;102765.00;;;-5.80;100.00
18900;BME280;9582;52.018;6.306;2022-12-18T01:23:36;102760.44;;;-5.70;100.00
18900;BME280;9582;52.018;6.306;2022-12-18T01:26:07;102758.44;;;-5.75;100.00
18900;BME280;9582;52.018;6.306;2022-12-18T01:28:34;102763.47;;;-5.77;100.00
18900;BME280;9582;52.018;6.306;2022-12-18T01:31:12;102770.44;;;-5.91;100.00
18900;BME280;9582;52.018;6.306;2022-12-18T01:33:40;102764.91;;;-5.98;100.00
18900;BME280;9582;52.018;6.306;2022-12-18T01:36:07;102756.81;;;-5.91;100.00
18900;BME280;9582;52.018;6.306;2022-12-18T01:38:34;102750.63;;;-5.96;100.00
18900;BME280;9582;52.018;6.306;2022-12-18T01:41:01;102754.59;;;-5.85;100.00
18900;BME280;9582;52.018;6.306;2022-12-18T01:43:43;102754.13;;;-5.94;100.00
18900;BME280;9582;52.018;6.306;2022-12-18T01:46:10;102752.34;;;-5.95;100.00
18900;BME280;9582;52.018;6.306;2022-12-18T01:48:39;102747.91;;;-5.99;100.00
18900;BME280;9582;52.018;6.306;2022-12-18T01:51:09;102754.66;;;-6.00;100.00
18900;BME280;9582;52.018;6.306;2022-12-18T01:53:36;102756.88;;;-5.90;100.00
18900;BME280;9582;52.018;6.306;2022-12-18T01:56:04;102761.13;;;-5.90;100.00
18900;BME280;9582;52.018;6.306;2022-12-18T01:58:37;102769.13;;;-5.82;100.00
18900;BME280;9582;52.018;6.306;2022-12-18T02:01:06;102768.34;;;-5.81;100.00
18900;BME280;9582;52.018;6.306;2022-12-18T02:03:33;102764.81;;;-5.84;100.00
18900;BME280;9582;52.018;6.306;2022-12-18T02:06:05;102764.69;;;-5.87;100.00
18900;BME280;9582;52.018;6.306;2022-12-18T02:08:43;102756.81;;;-6.07;100.00
18900;BME280;9582;52.018;6.306;2022-12-18T02:11:18;102759.25;;;-6.09;100.00
18900;BME280;9582;52.018;6.306;2022-12-18T02:13:55;102763.47;;;-6.09;100.00
18900;BME280;9582;52.018;6.306;2022-12-18T02:16:30;102769.16;;;-5.99;100.00
18900;BME280;9582;52.018;6.306;2022-12-18T02:19:05;102766.91;;;-5.93;100.00
18900;BME280;9582;52.018;6.306;2022-12-18T02:21:45;102763.75;;;-5.89;100.00
18900;BME280;9582;52.018;6.306;2022-12-18T02:24:26;102763.75;;;-5.89;100.00
18900;BME280;9582;52.018;6.306;2022-12-18T02:26:58;102758.94;;;-5.82;100.00
18900;BME280;9582;52.018;6.306;2022-12-18T02:29:31;102758.53;;;-5.74;100.00
18900;BME280;9582;52.018;6.306;2022-12-18T02:32:02;102751.94;;;-5.70;100.00
18900;BME280;9582;52.018;6.306;2022-12-18T02:34:33;102757.09;;;-5.69;100.00
18900;BME280;9582;52.018;6.306;2022-12-18T02:37:04;102756.94;;;-5.72;100.00
18900;BME280;9582;52.018;6.306;2022-12-18T02:39:34;102755.75;;;-5.78;100.00
18900;BME280;9582;52.018;6.306;2022-12-18T02:42:04;102764.69;;;-5.87;100.00
18900;BME280;9582;52.018;6.306;2022-12-18T02:44:33;102757.78;;;-5.89;100.00
18900;BME280;9582;52.018;6.306;2022-12-18T02:47:02;102769.19;;;-5.81;100.00
18900;BME280;9582;52.018;6.306;2022-12-18T02:49:35;102771.03;;;-5.78;100.00
18900;BME280;9582;52.018;6.306;2022-12-18T02:52:18;102767.06;;;-5.73;100.00
18900;BME280;9582;52.018;6.306;2022-12-18T02:54:55;102767.41;;;-5.67;100.00
18900;BME280;9582;52.018;6.306;2022-12-18T02:57:31;102775.03;;;-5.67;100.00
18900;BME280;9582;52.018;6.306;2022-12-18T03:00:04;102764.84;;;-5.67;100.00
18900;BME280;9582;52.018;6.306;2022-12-18T03:02:39;102764.53;;;-5.73;100.00
18900;BME280;9582;52.018;6.306;2022-12-18T03:05:13;102757.81;;;-5.71;100.00
18900;BME280;9582;52.018;6.306;2022-12-18T03:07:45;102754.19;;;-5.76;100.00
18900;BME280;9582;52.018;6.306;2022-12-18T03:10:16;102755.16;;;-5.91;100.00
18900;BME280;9582;52.018;6.306;2022-12-18T03:12:51;102758.16;;;-5.98;100.00
18900;BME280;9582;52.018;6.306;2022-12-18T03:15:24;102758.00;;;-6.01;100.00
18900;BME280;9582;52.018;6.306;2022-12-18T03:18:02;102761.34;;;-6.02;100.00
18900;BME280;9582;52.018;6.306;2022-12-18T03:20:31;102760.47;;;-6.02;100.00
18900;BME280;9582;52.018;6.306;2022-12-18T03:23:04;102759.75;;;-6.00;100.00
18900;BME280;9582;52.018;6.306;2022-12-18T03:25:32;102755.22;;;-6.05;100.00
18900;BME280;9582;52.018;6.306;2022-12-18T03:28:03;102749.06;;;-6.09;100.00
18900;BME280;9582;52.018;6.306;2022-12-18T03:30:36;102741.09;;;-6.15;100.00
18900;BME280;9582;52.018;6.306;2022-12-18T03:33:07;102744.59;;;-6.29;100.00
18900;BME280;9582;52.018;6.306;2022-12-18T03:35:39;102741.81;;;-6.33;100.00
18900;BME280;9582;52.018;6.306;2022-12-18T03:38:06;102734.34;;;-6.30;100.00
18900;BME280;9582;52.018;6.306;2022-12-18T03:40:43;102735.22;;;-6.30;100.00
18900;BME280;9582;52.018;6.306;2022-12-18T03:43:17;102737.50;;;-6.34;100.00
18900;BME280;9582;52.018;6.306;2022-12-18T03:45:52;102727.16;;;-6.37;100.00
18900;BME280;9582;52.018;6.306;2022-12-18T03:48:26;102725.41;;;-6.38;100.00
18900;BME280;9582;52.018;6.306;2022-12-18T03:50:57;102721.88;;;-6.40;100.00
18900;BME280;9582;52.018;6.306;2022-12-18T03:53:31;102724.38;;;-6.42;100.00
18900;BME280;9582;52.018;6.306;2022-12-18T03:56:03;102718.72;;;-6.36;100.00
18900;BME280;9582;52.018;6.306;2022-12-18T03:58:38;102713.72;;;-6.35;100.00
18900;BME280;9582;52.018;6.306;2022-12-18T04:01:16;102719.94;;;-6.30;100.00
18900;BME280;9582;52.018;6.306;2022-12-18T04:03:46;102721.84;;;-6.26;100.00
18900;BME280;9582;52.018;6.306;2022-12-18T04:06:17;102726.88;;;-6.27;100.00
18900;BME280;9582;52.018;6.306;2022-12-18T04:08:45;102733.78;;;-6.25;100.00
18900;BME280;9582;52.018;6.306;2022-12-18T04:11:16;102723.84;;;-6.20;100.00
18900;BME280;9582;52.018;6.306;2022-12-18T04:13:45;102723.13;;;-6.18;100.00
18900;BME280;9582;52.018;6.306;2022-12-18T04:16:18;102724.88;;;-6.17;100.00
18900;BME280;9582;52.018;6.306;2022-12-18T04:18:48;102727.19;;;-6.21;100.00
18900;BME280;9582;52.018;6.306;2022-12-18T04:21:15;102733.84;;;-6.23;100.00
18900;BME280;9582;52.018;6.306;2022-12-18T04:23:41;102731.53;;;-6.35;100.00
18900;BME280;9582;52.018;6.306;2022-12-18T04:26:08;102720.06;;;-6.43;100.00
18900;BME280;9582;52.018;6.306;2022-12-18T04:28:43;102715.94;;;-6.41;100.00
18900;BME280;9582;52.018;6.306;2022-12-18T04:31:12;102713.41;;;-6.41;100.00
18900;BME280;9582;52.018;6.306;2022-12-18T04:33:39;102705.06;;;-6.38;100.00
18900;BME280;9582;52.018;6.306;2022-12-18T04:36:06;102701.47;;;-6.42;100.00
18900;BME280;9582;52.018;6.306;2022-12-18T04:38:33;102700.25;;;-6.49;100.00
18900;BME280;9582;52.018;6.306;2022-12-18T04:41:05;102696.91;;;-6.48;100.00
18900;BME280;9582;52.018;6.306;2022-12-18T04:43:33;102699.53;;;-6.46;100.00
18900;BME280;9582;52.018;6.306;2022-12-18T04:46:03;102688.56;;;-6.45;100.00
18900;BME280;9582;52.018;6.306;2022-12-18T04:48:32;102690.56;;;-6.39;100.00
18900;BME280;9582;52.018;6.306;2022-12-18T04:50:58;102689.78;;;-6.38;100.00
18900;BME280;9582;52.018;6.306;2022-12-18T04:53:25;102689.69;;;-6.40;100.00
18900;BME280;9582;52.018;6.306;2022-12-18T04:56:02;102701.47;;;-6.42;100.00
18900;BME280;9582;52.018;6.306;2022-12-18T04:58:29;102694.78;;;-6.40;100.00
18900;BME280;9582;52.018;6.306;2022-12-18T05:00:56;102691.28;;;-6.42;100.00
18900;BME280;9582;52.018;6.306;2022-12-18T05:03:22;102692.16;;;-6.41;100.00
18900;BME280;9582;52.018;6.306;2022-12-18T05:05:50;102696.53;;;-6.39;100.00
18900;BME280;9582;52.018;6.306;2022-12-18T05:08:17;102701.16;;;-6.32;100.00
18900;BME280;9582;52.018;6.306;2022-12-18T05:10:44;102698.16;;;-6.25;100.00
18900;BME280;9582;52.018;6.306;2022-12-18T05:13:10;102701.09;;;-6.17;100.00
18900;BME280;9582;52.018;6.306;2022-12-18T05:15:37;102690.84;;;-6.19;100.00
18900;BME280;9582;52.018;6.306;2022-12-18T05:18:04;102694.88;;;-6.22;100.00
18900;BME280;9582;52.018;6.306;2022-12-18T05:20:31;102695.53;;;-6.10;100.00
18900;BME280;9582;52.018;6.306;2022-12-18T05:22:59;102697.28;;;-6.09;100.00
18900;BME280;9582;52.018;6.306;2022-12-18T05:25:25;102709.94;;;-6.11;100.00
18900;BME280;9582;52.018;6.306;2022-12-18T05:27:52;102711.09;;;-6.20;100.00
18900;BME280;9582;52.018;6.306;2022-12-18T05:30:18;102721.56;;;-6.16;100.00
18900;BME280;9582;52.018;6.306;2022-12-18T05:32:45;102721.41;;;-6.03;100.00
18900;BME280;9582;52.018;6.306;2022-12-18T05:35:11;102733.97;;;-6.06;100.00
18900;BME280;9582;52.018;6.306;2022-12-18T05:37:37;102723.78;;;-6.06;100.00
18900;BME280;9582;52.018;6.306;2022-12-18T05:40:07;102733.50;;;-5.99;100.00
18900;BME280;9582;52.018;6.306;2022-12-18T05:42:33;102743.84;;;-5.96;100.00
18900;BME280;9582;52.018;6.306;2022-12-18T05:45:00;102758.31;;;-5.95;100.00
18900;BME280;9582;52.018;6.306;2022-12-18T05:47:27;102746.06;;;-6.02;100.00
18900;BME280;9582;52.018;6.306;2022-12-18T05:49:53;102753.56;;;-6.05;100.00
18900;BME280;9582;52.018;6.306;2022-12-18T05:52:20;102755.38;;;-5.86;100.00
18900;BME280;9582;52.018;6.306;2022-12-18T05:54:46;102755.16;;;-5.91;100.00
18900;BME280;9582;52.018;6.306;2022-12-18T05:57:14;102754.28;;;-5.91;100.00
18900;BME280;9582;52.018;6.306;2022-12-18T05:59:41;102747.41;;;-5.92;100.00
18900;BME280;9582;52.018;6.306;2022-12-18T06:02:07;102750.78;;;-5.93;100.00
18900;BME280;9582;52.018;6.306;2022-12-18T06:04:34;102747.19;;;-5.97;100.00
18900;BME280;9582;52.018;6.306;2022-12-18T06:07:00;102748.47;;;-6.05;100.00
18900;BME280;9582;52.018;6.306;2022-12-18T06:09:28;102734.50;;;-6.11;100.00
18900;BME280;9582;52.018;6.306;2022-12-18T06:11:55;102729.25;;;-6.14;100.00
18900;BME280;9582;52.018;6.306;2022-12-18T06:14:23;102725.66;;;-6.18;100.00
18900;BME280;9582;52.018;6.306;2022-12-18T06:16:50;102718.75;;;-6.20;100.00
18900;BME280;9582;52.018;6.306;2022-12-18T06:19:17;102722.81;;;-6.24;100.00
18900;BME280;9582;52.018;6.306;2022-12-18T06:21:44;102709.22;;;-6.24;100.00
18900;BME280;9582;52.018;6.306;2022-12-18T06:24:10;102716.69;;;-6.27;100.00
18900;BME280;9582;52.018;6.306;2022-12-18T06:26:37;102717.56;;;-6.27;100.00
18900;BME280;9582;52.018;6.306;2022-12-18T06:29:05;102708.94;;;-6.29;100.00
18900;BME280;9582;52.018;6.306;2022-12-18T06:31:33;102702.75;;;-6.34;100.00
18900;BME280;9582;52.018;6.306;2022-12-18T06:34:02;102705.38;;;-6.32;100.00
18900;BME280;9582;52.018;6.306;2022-12-18T06:36:29;102714.03;;;-6.29;100.00
18900;BME280;9582;52.018;6.306;2022-12-18T06:38:56;102717.00;;;-6.21;100.00
18900;BME280;9582;52.018;6.306;2022-12-18T06:41:23;102704.50;;;-6.17;100.00
18900;BME280;9582;52.018;6.306;2022-12-18T06:43:50;102716.63;;;-6.13;100.00
18900;BME280;9582;52.018;6.306;2022-12-18T06:46:16;102713.59;;;-6.06;100.00
18900;BME280;9582;52.018;6.306;2022-12-18T06:48:46;102705.16;;;-6.05;100.00
18900;BME280;9582;52.018;6.306;2022-12-18T06:51:16;102704.44;;;-6.02;100.00
18900;BME280;9582;52.018;6.306;2022-12-18T06:53:42;102706.91;;;-6.04;100.00
18900;BME280;9582;52.018;6.306;2022-12-18T06:56:09;102695.16;;;-6.02;100.00
18900;BME280;9582;52.018;6.306;2022-12-18T06:58:35;102697.53;;;-6.05;100.00
18900;BME280;9582;52.018;6.306;2022-12-18T07:01:03;102690.50;;;-6.09;100.00
18900;BME280;9582;52.018;6.306;2022-12-18T07:03:30;102686.25;;;-6.10;100.00
18900;BME280;9582;52.018;6.306;2022-12-18T07:05:58;102677.63;;;-6.12;100.00
18900;BME280;9582;52.018;6.306;2022-12-18T07:08:24;102682.72;;;-6.12;100.00
18900;BME280;9582;52.018;6.306;2022-12-18T07:10:51;102675.25;;;-6.09;100.00
18900;BME280;9582;52.018;6.306;2022-12-18T07:13:19;102673.00;;;-6.03;100.00
18900;BME280;9582;52.018;6.306;2022-12-18T07:15:45;102684.25;;;-5.99;100.00
18900;BME280;9582;52.018;6.306;2022-12-18T07:18:12;102674.28;;;-5.95;100.00
18900;BME280;9582;52.018;6.306;2022-12-18T07:20:38;102671.09;;;-5.91;100.00
18900;BME280;9582;52.018;6.306;2022-12-18T07:23:06;102679.84;;;-5.86;100.00
18900;BME280;9582;52.018;6.306;2022-12-18T07:25:33;102674.09;;;-5.81;100.00
18900;BME280;9582;52.018;6.306;2022-12-18T07:28:00;102675.66;;;-5.67;100.00
18900;BME280;9582;52.018;6.306;2022-12-18T07:30:26;102680.59;;;-5.70;100.00
18900;BME280;9582;52.018;6.306;2022-12-18T07:32:53;102682.19;;;-5.72;100.00
18900;BME280;9582;52.018;6.306;2022-12-18T07:35:19;102686.72;;;-5.83;100.00
18900;BME280;9582;52.018;6.306;2022-12-18T07:37:46;102691.81;;;-5.83;100.00
18900;BME280;9582;52.018;6.306;2022-12-18T07:40:14;102684.13;;;-5.85;100.00
18900;BME280;9582;52.018;6.306;2022-12-18T07:42:40;102668.84;;;-5.85;100.00
18900;BME280;9582;52.018;6.306;2022-12-18T07:45:08;102672.78;;;-5.91;100.00
18900;BME280;9582;52.018;6.306;2022-12-18T07:47:34;102678.09;;;-5.87;100.00
18900;BME280;9582;52.018;6.306;2022-12-18T07:50:01;102680.75;;;-5.84;100.00
18900;BME280;9582;52.018;6.306;2022-12-18T07:52:28;102684.28;;;-5.81;100.00
18900;BME280;9582;52.018;6.306;2022-12-18T07:54:54;102681.97;;;-5.77;100.00
18900;BME280;9582;52.018;6.306;2022-12-18T07:57:22;102674.75;;;-5.86;100.00
18900;BME280;9582;52.018;6.306;2022-12-18T07:59:49;102664.84;;;-5.79;100.00
18900;BME280;9582;52.018;6.306;2022-12-18T08:02:15;102658.09;;;-5.79;100.00
18900;BME280;9582;52.018;6.306;2022-12-18T08:04:42;102662.16;;;-5.82;100.00
18900;BME280;9582;52.018;6.306;2022-12-18T08:07:08;102651.28;;;-5.78;100.00
18900;BME280;9582;52.018;6.306;2022-12-18T08:09:35;102642.22;;;-5.73;100.00
18900;BME280;9582;52.018;6.306;2022-12-18T08:12:01;102639.03;;;-5.69;100.00
18900;BME280;9582;52.018;6.306;2022-12-18T08:14:29;102630.75;;;-5.65;100.00
18900;BME280;9582;52.018;6.306;2022-12-18T08:16:56;102634.47;;;-5.59;100.00
18900;BME280;9582;52.018;6.306;2022-12-18T08:19:23;102614.47;;;-5.51;100.00
18900;BME280;9582;52.018;6.306;2022-12-18T08:21:49;102609.72;;;-5.44;100.00
18900;BME280;9582;52.018;6.306;2022-12-18T08:24:16;102609.38;;;-5.34;100.00
18900;BME280;9582;52.018;6.306;2022-12-18T08:26:42;102621.59;;;-5.27;100.00
18900;BME280;9582;52.018;6.306;2022-12-18T08:29:09;102623.94;;;-5.13;100.00
18900;BME280;9582;52.018;6.306;2022-12-18T08:31:37;102614.84;;;-5.08;100.00
18900;BME280;9582;52.018;6.306;2022-12-18T08:34:04;102617.81;;;-4.99;100.00
18900;BME280;9582;52.018;6.306;2022-12-18T08:36:30;102620.06;;;-4.88;100.00
18900;BME280;9582;52.018;6.306;2022-12-18T08:38:57;102625.53;;;-4.80;100.00
18900;BME280;9582;52.018;6.306;2022-12-18T08:41:23;102619.88;;;-4.73;100.00
18900;BME280;9582;52.018;6.306;2022-12-18T08:43:50;102624.41;;;-4.68;100.00
18900;BME280;9582;52.018;6.306;2022-12-18T08:46:35;102615.41;;;-4.59;100.00
18900;BME280;9582;52.018;6.306;2022-12-18T08:49:04;102614.06;;;-4.51;100.00
18900;BME280;9582;52.018;6.306;2022-12-18T08:51:31;102607.56;;;-4.45;100.00
18900;BME280;9582;52.018;6.306;2022-12-18T08:53:58;102606.16;;;-4.38;100.00
18900;BME280;9582;52.018;6.306;2022-12-18T08:56:24;102613.56;;;-4.25;100.00
18900;BME280;9582;52.018;6.306;2022-12-18T08:58:52;102605.38;;;-4.18;100.00
18900;BME280;9582;52.018;6.306;2022-12-18T09:01:19;102618.41;;;-4.12;100.00
18900;BME280;9582;52.018;6.306;2022-12-18T09:03:46;102624.72;;;-4.04;100.00
18900;BME280;9582;52.018;6.306;2022-12-18T09:06:15;102633.59;;;-3.96;100.00
18900;BME280;9582;52.018;6.306;2022-12-18T09:08:42;102635.44;;;-3.92;100.00
18900;BME280;9582;52.018;6.306;2022-12-18T09:11:13;102628.88;;;-3.87;100.00
18900;BME280;9582;52.018;6.306;2022-12-18T09:13:40;102629.09;;;-3.81;100.00
18900;BME280;9582;52.018;6.306;2022-12-18T09:16:06;102631.13;;;-3.74;100.00
18900;BME280;9582;52.018;6.306;2022-12-18T09:18:33;102634.56;;;-3.73;100.00
18900;BME280;9582;52.018;6.306;2022-12-18T09:21:00;102625.53;;;-3.65;100.00
18900;BME280;9582;52.018;6.306;2022-12-18T09:23:28;102619.91;;;-3.57;100.00
18900;BME280;9582;52.018;6.306;2022-12-18T09:25:58;102629.66;;;-3.48;100.00
18900;BME280;9582;52.018;6.306;2022-12-18T09:28:24;102616.38;;;-3.39;100.00
18900;BME280;9582;52.018;6.306;2022-12-18T09:30:51;102601.44;;;-3.29;100.00
18900;BME280;9582;52.018;6.306;2022-12-18T09:33:17;102598.63;;;-3.14;100.00
18900;BME280;9582;52.018;6.306;2022-12-18T09:35:45;102599.66;;;-3.09;100.00
18900;BME280;9582;52.018;6.306;2022-12-18T09:38:13;102593.91;;;-3.04;100.00
18900;BME280;9582;52.018;6.306;2022-12-18T09:40:43;102594.38;;;-2.92;100.00
18900;BME280;9582;52.018;6.306;2022-12-18T09:43:17;102597.44;;;-2.79;100.00
18900;BME280;9582;52.018;6.306;2022-12-18T09:45:47;102597.81;;;-2.69;100.00
18900;BME280;9582;52.018;6.306;2022-12-18T09:48:18;102599.13;;;-2.56;100.00
18900;BME280;9582;52.018;6.306;2022-12-18T09:50:48;102595.22;;;-2.47;100.00
18900;BME280;9582;52.018;6.306;2022-12-18T09:53:19;102589.59;;;-2.37;100.00
18900;BME280;9582;52.018;6.306;2022-12-18T09:55:50;102581.38;;;-2.28;100.00
18900;BME280;9582;52.018;6.306;2022-12-18T09:58:22;102591.09;;;-2.19;100.00
18900;BME280;9582;52.018;6.306;2022-12-18T10:00:51;102593.16;;;-2.09;100.00
18900;BME280;9582;52.018;6.306;2022-12-18T10:03:17;102587.41;;;-2.02;100.00
18900;BME280;9582;52.018;6.306;2022-12-18T10:06:03;102574.81;;;-1.96;100.00
18900;BME280;9582;52.018;6.306;2022-12-18T10:08:37;102568.16;;;-1.91;100.00
18900;BME280;9582;52.018;6.306;2022-12-18T10:11:21;102575.38;;;-1.80;100.00
18900;BME280;9582;52.018;6.306;2022-12-18T10:13:55;102572.16;;;-1.74;100.00
18900;BME280;9582;52.018;6.306;2022-12-18T10:16:27;102563.66;;;-1.73;100.00
18900;BME280;9582;52.018;6.306;2022-12-18T10:19:04;102554.28;;;-1.72;100.00
18900;BME280;9582;52.018;6.306;2022-12-18T10:21:41;102548.97;;;-1.77;100.00
18900;BME280;9582;52.018;6.306;2022-12-18T10:24:18;102547.69;;;-1.64;100.00
18900;BME280;9582;52.018;6.306;2022-12-18T10:26:52;102542.59;;;-1.63;100.00
18900;BME280;9582;52.018;6.306;2022-12-18T10:29:19;102542.00;;;-1.56;100.00
18900;BME280;9582;52.018;6.306;2022-12-18T10:31:45;102532.63;;;-1.54;100.00
18900;BME280;9582;52.018;6.306;2022-12-18T10:34:12;102535.09;;;-1.57;100.00
18900;BME280;9582;52.018;6.306;2022-12-18T10:36:38;102536.13;;;-1.52;100.00
18900;BME280;9582;52.018;6.306;2022-12-18T10:39:16;102534.59;;;-1.47;100.00
18900;BME280;9582;52.018;6.306;2022-12-18T10:41:42;102529.81;;;-1.35;100.00
18900;BME280;9582;52.018;6.306;2022-12-18T10:44:15;102524.88;;;-1.29;100.00
18900;BME280;9582;52.018;6.306;2022-12-18T10:46:43;102519.88;;;-1.24;100.00
18900;BME280;9582;52.018;6.306;2022-12-18T10:49:20;102503.47;;;-1.29;100.00
18900;BME280;9582;52.018;6.306;2022-12-18T10:51:47;102496.09;;;-1.19;100.00
18900;BME280;9582;52.018;6.306;2022-12-18T10:54:17;102491.81;;;-1.20;100.00
18900;BME280;9582;52.018;6.306;2022-12-18T10:56:44;102482.31;;;-1.22;100.00
18900;BME280;9582;52.018;6.306;2022-12-18T10:59:14;102485.88;;;-1.17;100.00
18900;BME280;9582;52.018;6.306;2022-12-18T11:01:49;102474.91;;;-1.13;100.00
18900;BME280;9582;52.018;6.306;2022-12-18T11:04:19;102470.66;;;-1.11;100.00
18900;BME280;9582;52.018;6.306;2022-12-18T11:06:55;102473.41;;;-1.05;100.00
18900;BME280;9582;52.018;6.306;2022-12-18T11:09:23;102470.69;;;-1.09;100.00
18900;BME280;9582;52.018;6.306;2022-12-18T11:11:50;102478.56;;;-1.03;100.00
18900;BME280;9582;52.018;6.306;2022-12-18T11:14:22;102479.63;;;-0.97;100.00
18900;BME280;9582;52.018;6.306;2022-12-18T11:16:50;102474.59;;;-0.94;100.00
18900;BME280;9582;52.018;6.306;2022-12-18T11:19:30;102483.22;;;-0.90;100.00
18900;BME280;9582;52.018;6.306;2022-12-18T11:21:58;102488.44;;;-0.87;100.00
18900;BME280;9582;52.018;6.306;2022-12-18T11:24:30;102484.25;;;-0.85;100.00
18900;BME280;9582;52.018;6.306;2022-12-18T11:26:58;102467.25;;;-0.80;100.00
18900;BME280;9582;52.018;6.306;2022-12-18T11:29:35;102453.63;;;-0.79;100.00
18900;BME280;9582;52.018;6.306;2022-12-18T11:32:33;102457.09;;;-0.77;100.00
18900;BME280;9582;52.018;6.306;2022-12-18T11:35:04;102449.56;;;-0.71;100.00
18900;BME280;9582;52.018;6.306;2022-12-18T11:37:35;102458.44;;;-0.59;100.00
18900;BME280;9582;52.018;6.306;2022-12-18T11:40:09;102452.47;;;-0.57;100.00
18900;BME280;9582;52.018;6.306;2022-12-18T11:42:42;102441.41;;;-0.55;100.00
18900;BME280;9582;52.018;6.306;2022-12-18T11:45:24;102438.09;;;-0.51;100.00
18900;BME280;9582;52.018;6.306;2022-12-18T11:47:57;102427.88;;;-0.48;100.00
18900;BME280;9582;52.018;6.306;2022-12-18T11:50:30;102425.31;;;-0.48;100.00
18900;BME280;9582;52.018;6.306;2022-12-18T11:52:58;102425.31;;;-0.48;100.00
18900;BME280;9582;52.018;6.306;2022-12-18T11:55:31;102428.88;;;-0.43;100.00
18900;BME280;9582;52.018;6.306;2022-12-18T11:58:09;102429.88;;;-0.38;100.00
18900;BME280;9582;52.018;6.306;2022-12-18T12:00:44;102426.41;;;-0.40;100.00
18900;BME280;9582;52.018;6.306;2022-12-18T12:03:24;102428.25;;;-0.34;100.00
18900;BME280;9582;52.018;6.306;2022-12-18T12:06:01;102417.91;;;-0.36;100.00
18900;BME280;9582;52.018;6.306;2022-12-18T12:08:39;102411.09;;;-0.35;100.00
18900;BME280;9582;52.018;6.306;2022-12-18T12:11:16;102405.16;;;-0.33;100.00
18900;BME280;9582;52.018;6.306;2022-12-18T12:13:52;102391.41;;;-0.35;100.00
18900;BME280;9582;52.018;6.306;2022-12-18T12:16:28;102394.88;;;-0.33;100.00
18900;BME280;9582;52.018;6.306;2022-12-18T12:19:12;102387.22;;;-0.31;100.00
18900;BME280;9582;52.018;6.306;2022-12-18T12:21:49;102383.84;;;-0.29;100.00
18900;BME280;9582;52.018;6.306;2022-12-18T12:24:33;102375.09;;;-0.37;100.00
18900;BME280;9582;52.018;6.306;2022-12-18T12:27:10;102367.25;;;-0.41;100.00
18900;BME280;9582;52.018;6.306;2022-12-18T12:29:47;102363.88;;;-0.39;100.00
18900;BME280;9582;52.018;6.306;2022-12-18T12:32:27;102367.25;;;-0.41;100.00
18900;BME280;9582;52.018;6.306;2022-12-18T12:35:08;102364.84;;;-0.34;100.00
18900;BME280;9582;52.018;6.306;2022-12-18T12:37:42;102376.13;;;-0.29;100.00
18900;BME280;9582;52.018;6.306;2022-12-18T12:40:16;102378.72;;;-0.29;100.00
18900;BME280;9582;52.018;6.306;2022-12-18T12:42:48;102370.19;;;-0.26;100.00
18900;BME280;9582;52.018;6.306;2022-12-18T12:45:38;102372.91;;;-0.20;100.00
18900;BME280;9582;52.018;6.306;2022-12-18T12:48:16;102362.66;;;-0.19;100.00
18900;BME280;9582;52.018;6.306;2022-12-18T12:50:45;102368.75;;;-0.15;100.00
18900;BME280;9582;52.018;6.306;2022-12-18T12:53:21;102361.84;;;-0.16;100.00
18900;BME280;9582;52.018;6.306;2022-12-18T12:55:48;102372.22;;;-0.13;100.00
18900;BME280;9582;52.018;6.306;2022-12-18T12:58:17;102357.69;;;-0.11;100.00
18900;BME280;9582;52.018;6.306;2022-12-18T13:00:55;102359.53;;;-0.06;100.00
18900;BME280;9582;52.018;6.306;2022-12-18T13:03:33;102351.94;;;-0.01;100.00
18900;BME280;9582;52.018;6.306;2022-12-18T13:06:05;102344.09;;;-0.06;100.00